πŸ“Š DonnΓ©es MΓ©tΓ©o - Bordeaux

Total mesures

14,367

TempΓ©rature moyenne

18.8Β°C

Temp. Min/Max

2.9Β° / 42.4Β°

HumiditΓ© moyenne

64.9%

Pression moyenne

1014.7 hPa
enregistrements
ID Date/Heure Temp (Β°C) HumiditΓ© (%) Pression (hPa) Tendance LuminositΓ© (lux) Situation
1667 19/02/2026 14:15 12.0 69.0 1,010.0 β†’ Stable 35,280 frais-stable
1666 19/02/2026 14:00 12.1 67.0 1,010.0 β†’ Stable 36,756 frais-stable
1665 19/02/2026 13:45 12.1 66.0 1,009.5 β†’ Stable 37,968 frais-stable
1664 19/02/2026 13:30 11.3 75.0 1,009.5 β†’ Stable 27,504 pluvieux-gris
1663 19/02/2026 13:15 11.2 78.0 1,009.5 β†’ Stable 23,892 pluvieux-gris
1662 19/02/2026 13:00 11.3 72.0 1,009.5 β†’ Stable 21,300 pluvieux-gris
1661 19/02/2026 12:45 11.2 75.0 1,009.2 β†’ Stable 21,480 pluvieux-gris
1660 19/02/2026 12:30 11.2 76.0 1,009.2 β†’ Stable 30,096 pluvieux-gris
1659 19/02/2026 12:15 11.1 76.0 1,009.2 β†’ Stable 30,924 pluvieux-gris
1658 19/02/2026 11:45 11.2 75.0 1,008.3 β†’ Stable 31,020 pluvieux-gris
1657 19/02/2026 11:30 11.4 77.0 1,008.3 β†’ Stable 42,132 pluvieux-gris
1656 19/02/2026 11:15 11.6 72.0 1,008.3 β†’ Stable 46,476 pluvieux-gris
1655 19/02/2026 10:45 11.7 69.0 1,007.5 β†’ Stable 47,040 frais-stable
1654 19/02/2026 10:30 11.4 78.0 1,007.5 β†’ Stable 28,428 pluvieux-gris
1653 19/02/2026 10:15 11.6 73.0 1,007.5 β†’ Stable 30,552 pluvieux-gris
1652 19/02/2026 10:00 11.6 71.0 1,007.5 β†’ Stable 31,116 pluvieux-gris
1651 19/02/2026 09:45 10.8 75.0 1,007.3 β†’ Stable 29,076 pluvieux-gris
1650 19/02/2026 09:30 10.6 77.0 1,007.3 β†’ Stable 19,632 pluvieux-gris
1649 19/02/2026 09:15 10.6 79.0 1,007.3 β†’ Stable 20,004 pluvieux-gris
1648 19/02/2026 09:00 10.6 79.0 1,007.3 β†’ Stable 19,260 pluvieux-gris
1647 19/02/2026 08:45 10.9 73.0 1,006.7 β†’ Stable 16,944 pluvieux-gris
1646 19/02/2026 08:30 11.1 71.0 1,006.7 β†’ Stable 8,424 pluvieux-gris
1645 19/02/2026 08:15 11.0 72.0 1,006.7 β†’ Stable 4,728 pluvieux-gris
1644 19/02/2026 08:00 11.2 70.0 1,006.7 β†’ Stable 2,496 pluvieux-gris
1643 19/02/2026 07:45 11.2 71.0 1,005.8 β†’ Stable 1,764 pluvieux-gris
1642 19/02/2026 07:30 10.6 76.0 1,005.8 β†’ Stable 2,040 pluvieux-gris
1641 19/02/2026 07:15 10.9 70.0 1,005.8 β†’ Stable 552 pluvieux-gris
1640 19/02/2026 06:45 10.6 70.0 1,004.8 β†’ Stable 0 pluvieux-gris
1639 19/02/2026 06:30 10.5 76.0 1,004.8 β†’ Stable 0 pluvieux-gris
1638 19/02/2026 06:15 10.8 73.0 1,004.8 β†’ Stable 0 pluvieux-gris
1637 19/02/2026 05:45 10.6 78.0 1,004.0 β†’ Stable 0 pluvieux-gris
1636 19/02/2026 05:30 10.0 81.0 1,004.0 β†’ Stable 0 pluvieux-gris
1635 19/02/2026 05:15 10.0 80.0 1,004.0 β†’ Stable 0 pluvieux-gris
1634 19/02/2026 04:45 9.6 82.0 1,004.1 β†’ Stable 0 pluvieux-gris
1633 19/02/2026 04:30 8.5 83.0 1,004.1 β†’ Stable 0 pluvieux-gris
1632 19/02/2026 04:15 8.2 80.0 1,004.1 β†’ Stable 0 pluvieux-gris
1631 19/02/2026 04:00 8.6 79.0 1,004.1 β†’ Stable 0 pluvieux-gris
1630 19/02/2026 03:45 9.0 77.0 1,003.0 β†’ Stable 0 pluvieux-gris
1629 19/02/2026 03:30 10.5 70.0 1,003.0 β†’ Stable 0 pluvieux-gris
1628 19/02/2026 03:15 10.8 65.0 1,003.0 β†’ Stable 0 frais-stable
1627 19/02/2026 02:45 11.1 63.0 1,003.4 β†’ Stable 0 frais-stable
1626 19/02/2026 02:30 10.7 62.0 1,003.4 β†’ Stable 0 frais-stable
1625 19/02/2026 02:15 10.9 60.0 1,003.4 β†’ Stable 0 frais-stable
1624 19/02/2026 01:45 10.9 63.0 1,003.0 β†’ Stable 0 frais-stable
1623 19/02/2026 01:30 10.2 67.0 1,003.0 β†’ Stable 0 frais-stable
1622 19/02/2026 01:15 10.3 70.0 1,003.0 β†’ Stable 0 pluvieux-gris
1621 19/02/2026 00:45 11.2 58.0 1,002.7 β†’ Stable 0 frais-stable
1620 19/02/2026 00:30 10.7 63.0 1,002.7 β†’ Stable 0 frais-stable
1619 19/02/2026 00:15 10.7 61.0 1,002.7 β†’ Stable 0 frais-stable
1618 18/02/2026 23:45 11.1 67.0 1,002.3 β†’ Stable 0 frais-stable
1617 18/02/2026 23:30 11.0 62.0 1,002.3 β†’ Stable 0 frais-stable
1616 18/02/2026 23:15 11.1 61.0 1,002.3 β†’ Stable 0 frais-stable
1615 18/02/2026 23:00 11.0 62.0 1,002.6 β†’ Stable 0 frais-stable
1614 18/02/2026 22:45 11.2 62.0 1,002.3 β†’ Stable 0 frais-stable
1613 18/02/2026 22:30 11.7 63.0 1,002.3 β†’ Stable 0 frais-stable
1612 18/02/2026 22:15 11.8 64.0 1,002.3 β†’ Stable 0 frais-stable
1611 18/02/2026 21:45 11.7 67.0 1,001.8 β†’ Stable 0 frais-stable
1610 18/02/2026 21:15 11.6 68.0 1,001.8 β†’ Stable 0 frais-stable
1609 18/02/2026 21:00 11.5 69.0 1,001.8 β†’ Stable 0 frais-stable
1608 18/02/2026 20:45 11.6 69.0 1,000.9 β†’ Stable 0 frais-stable
1607 18/02/2026 20:30 11.3 75.0 1,000.9 β†’ Stable 0 pluvieux-gris
1606 18/02/2026 20:15 11.0 79.0 1,000.9 β†’ Stable 0 pluvieux-gris
1605 18/02/2026 20:00 11.3 76.0 1,000.9 β†’ Stable 0 pluvieux-gris
1604 18/02/2026 19:45 11.6 75.0 1,000.5 β†’ Stable 0 pluvieux-gris
1603 18/02/2026 19:30 11.9 71.0 1,000.5 β†’ Stable 0 pluvieux-gris
1602 18/02/2026 19:15 12.0 71.0 1,000.5 β†’ Stable 0 pluvieux-gris
1601 18/02/2026 18:45 12.3 74.0 1,000.5 β†’ Stable 0 pluvieux-gris
1600 18/02/2026 18:30 12.5 71.0 1,000.5 β†’ Stable 0 pluvieux-gris
1599 18/02/2026 18:15 12.4 74.0 1,000.5 β†’ Stable 0 pluvieux-gris
1598 18/02/2026 17:45 11.1 77.0 1,002.2 β†’ Stable 0 pluvieux-gris
1597 18/02/2026 17:30 9.9 86.0 1,002.2 β†’ Stable 744 pluvieux-gris
1596 18/02/2026 17:15 10.0 82.0 1,002.2 β†’ Stable 1,944 pluvieux-gris
1595 18/02/2026 16:45 10.2 79.0 1,000.0 ↓ Baisse 4,080 pluvieux-gris
1594 18/02/2026 16:30 12.0 76.0 1,000.0 ↓ Baisse 10,092 pluvieux-gris
1593 18/02/2026 16:15 13.6 81.0 1,000.0 ↓ Baisse 16,572 pluvieux-gris
1592 18/02/2026 16:00 14.9 69.0 998.9 ↓ Baisse 22,872 pluvieux-gris (approx.)
1591 18/02/2026 15:45 16.2 56.0 1,000.0 ↓ Baisse 25,920 conditions-neutrales-ou-non-definies
1590 18/02/2026 15:30 16.5 56.0 1,000.0 ↓ Baisse 23,424 conditions-neutrales-ou-non-definies
1589 18/02/2026 15:15 16.3 57.0 1,000.0 ↓ Baisse 31,020 conditions-neutrales-ou-non-definies
1588 18/02/2026 14:45 16.5 56.0 1,002.1 ↓ Baisse 40,092 conditions-neutrales-ou-non-definies
1587 18/02/2026 14:15 15.6 62.0 1,002.1 ↓ Baisse 20,832 pluvieux-gris (approx.)
1586 18/02/2026 14:00 15.8 61.0 1,002.1 ↓ Baisse 20,460 pluvieux-gris (approx.)
1585 18/02/2026 13:45 16.0 59.0 1,003.4 ↓ Baisse 21,108 pluvieux-gris (approx.)
1584 18/02/2026 13:30 16.2 59.0 1,003.4 ↓ Baisse 40,464 conditions-neutrales-ou-non-definies
1583 18/02/2026 13:15 16.3 59.0 1,003.7 ↓ Baisse 49,812 conditions-neutrales-ou-non-definies
1582 18/02/2026 12:45 16.4 58.0 1,005.6 ↓ Baisse 57,132 conditions-neutrales-ou-non-definies
1581 18/02/2026 12:15 15.6 64.0 1,005.6 ↓ Baisse 41,760 pluvieux-gris (approx.)
1580 18/02/2026 12:00 15.7 63.0 1,005.6 ↓ Baisse 46,020 pluvieux-gris (approx.)
1579 18/02/2026 11:45 15.9 63.0 1,007.1 β†’ Stable 45,468 frais-stable
1578 18/02/2026 11:30 15.7 66.0 1,007.1 ↓ Baisse 53,976 pluvieux-gris (approx.)
1577 18/02/2026 11:15 15.6 66.0 1,007.1 ↓ Baisse 56,940 pluvieux-gris (approx.)
1576 18/02/2026 10:45 15.0 69.0 1,008.5 β†’ Stable 56,016 frais-stable
1575 18/02/2026 10:30 14.3 72.0 1,008.5 β†’ Stable 49,164 pluvieux-gris
1574 18/02/2026 10:15 14.0 74.0 1,008.5 β†’ Stable 46,020 pluvieux-gris
1573 18/02/2026 10:00 13.5 75.0 1,008.5 β†’ Stable 42,960 pluvieux-gris
1572 18/02/2026 09:45 13.1 77.0 1,009.4 β†’ Stable 40,092 pluvieux-gris
1571 18/02/2026 09:30 12.2 82.0 1,009.4 β†’ Stable 34,080 pluvieux-gris
1570 18/02/2026 09:15 11.8 83.0 1,009.4 β†’ Stable 30,000 pluvieux-gris
1569 18/02/2026 09:00 11.4 83.0 1,009.4 β†’ Stable 26,292 pluvieux-gris
1568 18/02/2026 08:45 11.1 84.0 1,010.4 β†’ Stable 23,052 pluvieux-gris